Time;durP1;ratioP1;P1;durP2;ratioP2;P2;SDS_P1;SDS_P2;PMS_P1;PMS_P2;Temp;Humidity;BMP_temperature;BMP_pressure;BME280_temperature;BME280_humidity;BME280_pressure;Samples;Min_cycle;Max_cycle;Signal;HPM_P1;HPM_P2
2023/07/15 00:01:53;;;;;;;0.90;0.57;;;22.40;62.00;;;;;;6274275;28;20031;-70
2023/07/15 00:04:54;;;;;;;0.50;0.50;;;22.40;62.00;;;;;;6273814;28;20472;-69
2023/07/15 00:07:55;;;;;;;0.60;0.50;;;22.40;62.00;;;;;;6273575;28;20104;-70
2023/07/15 00:10:56;;;;;;;0.60;0.60;;;22.40;62.00;;;;;;6273891;28;20029;-70
2023/07/15 00:13:57;;;;;;;0.50;0.50;;;22.40;62.00;;;;;;6272897;28;20033;-70
2023/07/15 00:16:59;;;;;;;0.75;0.63;;;22.40;62.00;;;;;;6273251;28;20107;-70
2023/07/15 00:20:00;;;;;;;0.98;0.73;;;22.40;62.00;;;;;;6272860;28;20044;-70
2023/07/15 00:23:02;;;;;;;0.60;0.60;;;22.40;62.00;;;;;;6273283;28;20514;-70
2023/07/15 00:26:03;;;;;;;0.82;0.63;;;22.40;62.00;;;;;;6273240;28;20036;-70
2023/07/15 00:29:04;;;;;;;1.00;0.80;;;22.40;62.00;;;;;;6273266;28;20028;-70
2023/07/15 00:32:12;;;;;;;0.47;0.47;;;22.40;62.00;;;;;;6272925;28;20055;-70
2023/07/15 00:35:31;;;;;;;0.90;0.70;;;22.40;62.00;;;;;;6273243;28;20506;-70
2023/07/15 00:38:32;;;;;;;0.60;0.60;;;22.40;62.00;;;;;;6272948;28;20490;-70
2023/07/15 00:41:34;;;;;;;1.02;0.70;;;22.40;62.00;;;;;;6273155;28;20013;-69
2023/07/15 00:44:35;;;;;;;0.57;0.50;;;22.40;62.00;;;;;;6273067;28;20036;-70
2023/07/15 00:47:49;;;;;;;0.80;0.80;;;22.40;62.00;;;;;;6272735;28;20482;-70
2023/07/15 00:50:50;;;;;;;0.77;0.70;;;22.40;62.00;;;;;;6248206;28;20480;-70
2023/07/15 00:53:53;;;;;;;0.63;0.60;;;22.40;62.00;;;;;;6256890;28;20032;-70
2023/07/15 00:56:56;;;;;;;0.50;0.50;;;22.40;62.00;;;;;;6272779;28;20433;-70
2023/07/15 00:59:59;;;;;;;0.82;0.60;;;22.40;62.00;;;;;;6271210;28;20099;-69
2023/07/15 01:03:00;;;;;;;0.82;0.65;;;22.40;62.00;;;;;;6271992;28;20411;-69
2023/07/15 01:06:01;;;;;;;0.73;0.63;;;22.40;62.00;;;;;;6272867;28;20119;-70
2023/07/15 01:09:07;;;;;;;0.57;0.50;;;22.40;62.00;;;;;;6272125;28;20380;-70
2023/07/15 01:12:08;;;;;;;0.88;0.60;;;22.40;62.00;;;;;;6272718;28;20341;-70
2023/07/15 01:15:09;;;;;;;0.73;0.68;;;22.40;62.00;;;;;;6271996;28;20017;-70
2023/07/15 01:18:09;;;;;;;0.50;0.50;;;22.40;62.00;;;;;;6272218;28;20028;-70
2023/07/15 01:21:13;;;;;;;0.70;0.65;;;22.40;62.00;;;;;;6272088;28;20405;-70
2023/07/15 01:24:13;;;;;;;0.60;0.60;;;22.40;62.00;;;;;;6271945;28;20372;-71
2023/07/15 01:27:14;;;;;;;0.60;0.60;;;22.40;62.00;;;;;;6271913;28;20059;-69
2023/07/15 01:30:15;;;;;;;0.70;0.50;;;22.40;62.00;;;;;;6271021;28;20057;-70
2023/07/15 01:33:15;;;;;;;0.55;0.52;;;22.40;62.00;;;;;;6270948;28;20029;-70
2023/07/15 01:36:16;;;;;;;0.40;0.40;;;22.40;62.00;;;;;;6271284;28;20442;-69
2023/07/15 01:39:17;;;;;;;0.80;0.60;;;22.40;62.00;;;;;;6270692;28;20452;-70
2023/07/15 01:42:18;;;;;;;0.73;0.60;;;22.40;62.00;;;;;;6271689;28;20031;-70
2023/07/15 01:45:18;;;;;;;0.70;0.60;;;22.40;62.00;;;;;;6271514;28;20032;-69
2023/07/15 01:48:19;;;;;;;0.52;0.52;;;22.40;62.00;;;;;;6271909;28;20025;-69
2023/07/15 01:51:19;;;;;;;0.57;0.50;;;22.40;62.00;;;;;;6271245;28;20028;-70
2023/07/15 01:54:20;;;;;;;0.60;0.50;;;22.40;62.00;;;;;;6271603;28;20479;-71
2023/07/15 01:57:21;;;;;;;0.60;0.52;;;22.40;62.00;;;;;;6271517;28;20051;-69
2023/07/15 02:00:21;;;;;;;0.80;0.40;;;22.40;62.00;;;;;;6271188;28;20013;-70
2023/07/15 02:03:22;;;;;;;0.40;0.40;;;22.40;62.00;;;;;;6253216;28;20033;-70
2023/07/15 02:06:22;;;;;;;0.77;0.60;;;22.40;62.00;;;;;;6270939;28;20078;-70
2023/07/15 02:09:23;;;;;;;0.60;0.60;;;22.40;62.00;;;;;;6270876;28;20024;-70
2023/07/15 02:12:24;;;;;;;0.40;0.40;;;22.40;62.00;;;;;;6271152;28;20029;-70
2023/07/15 02:15:24;;;;;;;0.60;0.60;;;22.40;62.10;;;;;;6270407;28;20021;-70
2023/07/15 02:18:25;;;;;;;0.73;0.68;;;22.40;62.00;;;;;;6271016;28;20116;-70
2023/07/15 02:21:26;;;;;;;0.73;0.60;;;22.40;62.00;;;;;;6270635;28;20025;-70
2023/07/15 02:24:26;;;;;;;0.57;0.57;;;22.40;62.00;;;;;;6270439;28;20036;-70
2023/07/15 02:27:30;;;;;;;0.60;0.60;;;22.40;62.00;;;;;;6270619;28;20402;-70
2023/07/15 02:30:31;;;;;;;0.60;0.60;;;22.40;62.00;;;;;;6270293;28;20053;-70
2023/07/15 02:33:31;;;;;;;0.82;0.55;;;22.40;62.00;;;;;;6270146;28;20099;-70
2023/07/15 02:36:32;;;;;;;1.17;0.68;;;22.40;62.00;;;;;;6270447;28;20025;-70
2023/07/15 02:39:34;;;;;;;0.70;0.55;;;22.40;62.00;;;;;;6270119;28;20064;-71
2023/07/15 02:42:36;;;;;;;0.93;0.60;;;22.50;62.00;;;;;;6270347;28;20033;-70
2023/07/15 02:45:36;;;;;;;1.02;0.60;;;22.40;62.00;;;;;;6270006;28;20079;-70
2023/07/15 02:48:37;;;;;;;0.70;0.60;;;22.40;62.00;;;;;;6270004;28;20032;-69
2023/07/15 02:51:37;;;;;;;0.55;0.45;;;22.40;62.00;;;;;;6270019;28;20509;-70
2023/07/15 02:54:38;;;;;;;0.90;0.60;;;22.40;62.00;;;;;;6269879;28;20422;-70
2023/07/15 02:57:39;;;;;;;0.55;0.55;;;22.40;62.00;;;;;;6270004;28;20090;-69
2023/07/15 03:00:41;;;;;;;1.40;0.65;;;22.40;62.00;;;;;;6269382;28;20013;-71
2023/07/15 03:03:41;;;;;;;1.10;0.73;;;22.40;62.00;;;;;;6269718;28;20033;-70
2023/07/15 03:06:42;;;;;;;0.38;0.38;;;22.40;62.00;;;;;;6269675;28;20021;-70
2023/07/15 03:09:43;;;;;;;1.02;0.75;;;22.40;62.00;;;;;;6270131;28;20483;-70
2023/07/15 03:12:44;;;;;;;0.70;0.70;;;22.40;62.00;;;;;;6269374;28;20029;-69
2023/07/15 03:15:44;;;;;;;0.70;0.60;;;22.40;62.00;;;;;;6269350;28;20541;-70
2023/07/15 03:18:45;;;;;;;0.50;0.50;;;22.40;62.00;;;;;;6269544;28;20031;-70
2023/07/15 03:21:45;;;;;;;0.57;0.57;;;22.40;62.10;;;;;;6269558;28;20021;-70
2023/07/15 03:24:46;;;;;;;1.20;0.60;;;22.40;62.00;;;;;;6268470;28;20039;-70
2023/07/15 03:27:48;;;;;;;0.73;0.70;;;22.40;62.00;;;;;;6269287;28;20032;-69
2023/07/15 03:30:49;;;;;;;0.80;0.65;;;22.40;62.00;;;;;;6269070;28;20052;-70
2023/07/15 03:33:51;;;;;;;0.52;0.43;;;22.40;62.00;;;;;;6269251;28;20032;-70
2023/07/15 03:36:52;;;;;;;0.70;0.57;;;22.40;62.00;;;;;;6269061;28;20044;-70
2023/07/15 03:39:52;;;;;;;0.93;0.60;;;22.40;62.00;;;;;;6269374;28;20262;-70
2023/07/15 03:42:53;;;;;;;0.57;0.57;;;22.40;62.00;;;;;;6269152;28;20024;-70
2023/07/15 03:45:57;;;;;;;0.50;0.50;;;22.40;62.10;;;;;;6269020;28;20067;-69
2023/07/15 03:48:58;;;;;;;0.90;0.70;;;22.40;62.10;;;;;;6268914;28;20090;-70
2023/07/15 03:51:58;;;;;;;0.77;0.63;;;22.40;62.00;;;;;;6268837;28;20143;-70
2023/07/15 03:54:59;;;;;;;0.75;0.60;;;22.40;62.10;;;;;;6268737;28;20032;-70
2023/07/15 03:58:00;;;;;;;1.00;0.70;;;22.50;62.20;;;;;;6269145;28;20074;-70
2023/07/15 04:01:00;;;;;;;0.75;0.60;;;22.40;62.00;;;;;;6268704;28;20025;-71
2023/07/15 04:04:07;;;;;;;0.73;0.50;;;22.40;62.10;;;;;;6269159;28;20066;-69
2023/07/15 04:07:09;;;;;;;0.50;0.50;;;22.40;62.10;;;;;;6268630;28;20017;-69
2023/07/15 04:10:09;;;;;;;0.85;0.57;;;22.40;62.10;;;;;;6268741;28;20111;-70
2023/07/15 04:13:10;;;;;;;0.57;0.50;;;22.40;62.10;;;;;;6268674;28;20101;-70
2023/07/15 04:16:10;;;;;;;0.50;0.50;;;22.40;62.10;;;;;;6268692;28;20128;-69
2023/07/15 04:19:11;;;;;;;0.68;0.57;;;22.40;62.10;;;;;;6268840;28;20033;-71
2023/07/15 04:22:12;;;;;;;0.80;0.57;;;22.40;62.10;;;;;;6268629;28;20017;-70
2023/07/15 04:25:14;;;;;;;0.70;0.57;;;22.40;62.10;;;;;;6268523;28;20507;-70
2023/07/15 04:28:15;;;;;;;0.50;0.40;;;22.40;62.10;;;;;;6268634;28;20044;-70
2023/07/15 04:31:16;;;;;;;0.52;0.52;;;22.40;62.10;;;;;;6268597;28;20048;-70
2023/07/15 04:34:16;;;;;;;0.63;0.60;;;22.40;62.10;;;;;;6269893;28;20535;-71
2023/07/15 04:37:17;;;;;;;0.63;0.55;;;22.40;62.10;;;;;;6273255;28;20055;-70
2023/07/15 04:40:18;;;;;;;1.05;0.68;;;22.40;62.10;;;;;;6273163;28;20025;-71
2023/07/15 04:43:21;;;;;;;0.90;0.50;;;22.40;62.10;;;;;;6273267;28;20096;-70
2023/07/15 04:46:21;;;;;;;0.52;0.52;;;22.40;62.10;;;;;;6272790;28;20032;-70
2023/07/15 04:49:23;;;;;;;0.60;0.60;;;22.40;62.10;;;;;;6273162;28;20053;-70
2023/07/15 04:52:24;;;;;;;0.85;0.57;;;22.40;62.10;;;;;;6272635;28;20033;-70
2023/07/15 04:55:25;;;;;;;0.52;0.52;;;22.40;62.10;;;;;;6272812;28;20695;-70
2023/07/15 04:58:25;;;;;;;0.75;0.60;;;22.40;62.10;;;;;;6254540;28;20032;-70
2023/07/15 05:01:26;;;;;;;0.60;0.60;;;22.40;62.10;;;;;;6266312;28;20022;-70
2023/07/15 05:04:27;;;;;;;0.90;0.70;;;22.40;62.10;;;;;;6268967;28;20057;-70
2023/07/15 05:07:28;;;;;;;0.50;0.50;;;22.40;62.10;;;;;;6272209;28;20025;-70
2023/07/15 05:10:28;;;;;;;0.63;0.57;;;22.40;62.10;;;;;;6272530;28;20649;-71
2023/07/15 05:13:30;;;;;;;0.70;0.40;;;22.40;62.10;;;;;;6272420;28;20032;-71
2023/07/15 05:16:30;;;;;;;1.02;0.60;;;22.40;62.10;;;;;;6247384;28;20033;-71
2023/07/15 05:19:31;;;;;;;0.50;0.50;;;22.40;62.10;;;;;;6267104;28;20035;-71
2023/07/15 05:22:31;;;;;;;0.60;0.60;;;22.40;62.10;;;;;;6271627;28;20025;-71
2023/07/15 05:25:33;;;;;;;0.90;0.68;;;22.40;62.10;;;;;;6271883;28;20388;-71
2023/07/15 05:28:35;;;;;;;0.65;0.60;;;22.40;62.10;;;;;;6271735;28;20086;-71
2023/07/15 05:31:35;;;;;;;0.63;0.43;;;22.40;62.10;;;;;;6271609;28;20048;-71
2023/07/15 05:34:36;;;;;;;0.70;0.60;;;22.40;62.10;;;;;;6271755;28;20025;-71
2023/07/15 05:37:37;;;;;;;0.70;0.60;;;22.40;62.10;;;;;;6271425;28;20491;-73
2023/07/15 05:40:40;;;;;;;0.70;0.68;;;22.50;62.20;;;;;;6271665;28;20096;-72
2023/07/15 05:43:41;;;;;;;0.70;0.65;;;22.40;62.10;;;;;;6271824;28;20029;-71
2023/07/15 05:46:42;;;;;;;0.63;0.50;;;22.40;62.10;;;;;;6270733;28;20075;-71
2023/07/15 05:49:42;;;;;;;0.60;0.50;;;22.40;62.10;;;;;;6267393;28;20017;-70
2023/07/15 05:52:43;;;;;;;0.50;0.50;;;22.50;62.60;;;;;;6268403;28;20029;-71
2023/07/15 05:55:43;;;;;;;0.60;0.60;;;22.40;62.10;;;;;;6271084;28;20056;-71
2023/07/15 05:58:44;;;;;;;1.45;0.50;;;22.40;62.10;;;;;;6270829;28;20033;-70
2023/07/15 06:01:46;;;;;;;0.50;0.50;;;22.40;62.10;;;;;;6270752;28;20032;-72
2023/07/15 06:04:46;;;;;;;1.10;0.60;;;22.40;62.10;;;;;;6270815;28;20574;-70
2023/07/15 06:07:48;;;;;;;0.85;0.65;;;22.40;62.10;;;;;;6270720;28;20017;-70
2023/07/15 06:10:48;;;;;;;0.68;0.68;;;22.40;62.10;;;;;;6270626;28;20021;-70
2023/07/15 06:13:49;;;;;;;0.70;0.65;;;22.40;62.10;;;;;;6270579;28;20130;-70
2023/07/15 06:16:50;;;;;;;0.40;0.40;;;22.40;62.10;;;;;;6270405;28;20460;-70
2023/07/15 06:19:50;;;;;;;0.55;0.50;;;22.40;62.10;;;;;;6270638;28;20056;-70
2023/07/15 06:22:51;;;;;;;0.70;0.60;;;22.40;62.10;;;;;;6270404;28;20056;-71
2023/07/15 06:25:51;;;;;;;0.57;0.57;;;22.40;62.10;;;;;;6270259;28;20033;-70
2023/07/15 06:28:52;;;;;;;0.50;0.50;;;22.40;62.10;;;;;;6270294;28;20052;-70
2023/07/15 06:31:52;;;;;;;1.30;0.55;;;22.40;62.10;;;;;;6270193;28;20056;-69
2023/07/15 06:34:53;;;;;;;0.50;0.50;;;22.40;62.10;;;;;;6270498;28;20060;-70
2023/07/15 06:37:54;;;;;;;0.43;0.43;;;22.40;62.10;;;;;;6270273;28;20029;-70
2023/07/15 06:40:55;;;;;;;0.60;0.60;;;22.40;62.10;;;;;;6270277;28;20029;-71
2023/07/15 06:43:55;;;;;;;0.50;0.50;;;22.40;62.10;;;;;;6270332;28;20056;-70
2023/07/15 06:46:56;;;;;;;0.73;0.50;;;22.40;62.10;;;;;;6270066;28;20029;-69
2023/07/15 06:49:57;;;;;;;0.30;0.30;;;22.50;62.20;;;;;;6270002;28;20057;-69
2023/07/15 06:52:57;;;;;;;0.57;0.52;;;22.40;62.10;;;;;;6269922;28;20447;-70
2023/07/15 06:56:00;;;;;;;0.50;0.50;;;22.40;62.10;;;;;;6269763;28;20033;-70
2023/07/15 06:59:00;;;;;;;0.43;0.43;;;22.40;62.10;;;;;;6268936;28;20017;-70
2023/07/15 07:02:01;;;;;;;0.73;0.60;;;22.40;62.10;;;;;;6259241;28;20036;-70
2023/07/15 07:05:02;;;;;;;0.52;0.50;;;22.40;62.10;;;;;;6261377;28;20056;-69
2023/07/15 07:08:03;;;;;;;0.50;0.40;;;22.40;62.10;;;;;;6267080;28;20025;-70
2023/07/15 07:11:03;;;;;;;0.45;0.40;;;22.40;62.10;;;;;;6268307;28;20021;-69
2023/07/15 07:14:04;;;;;;;0.50;0.50;;;22.40;62.10;;;;;;6267737;28;20033;-70
2023/07/15 07:17:04;;;;;;;0.55;0.55;;;22.50;62.20;;;;;;6268145;28;20094;-70
2023/07/15 07:20:06;;;;;;;0.70;0.60;;;22.40;62.10;;;;;;6265554;28;20472;-70
2023/07/15 07:23:08;;;;;;;1.15;0.80;;;22.40;62.10;;;;;;6268087;28;20556;-69
2023/07/15 07:26:08;;;;;;;0.63;0.50;;;22.40;62.10;;;;;;6266907;28;20100;-70
2023/07/15 07:29:09;;;;;;;0.60;0.55;;;22.40;62.10;;;;;;6267859;28;20400;-70
2023/07/15 07:32:10;;;;;;;1.05;0.60;;;22.40;62.00;;;;;;6267610;28;20049;-70
2023/07/15 07:35:10;;;;;;;0.55;0.50;;;22.50;62.00;;;;;;6267326;28;20023;-70
2023/07/15 07:38:12;;;;;;;0.75;0.55;;;22.50;62.10;;;;;;6256367;28;20028;-70
2023/07/15 07:41:15;;;;;;;0.68;0.50;;;22.40;62.00;;;;;;6263664;28;20782;-70
2023/07/15 07:44:15;;;;;;;0.85;0.60;;;22.50;62.00;;;;;;6267267;28;20473;-70
2023/07/15 07:47:16;;;;;;;0.40;0.40;;;22.50;62.20;;;;;;6267662;28;20025;-69
2023/07/15 07:50:16;;;;;;;0.40;0.40;;;22.50;62.10;;;;;;6267311;28;20025;-70
2023/07/15 07:53:17;;;;;;;0.40;0.40;;;22.50;62.20;;;;;;6267255;28;20037;-70
2023/07/15 07:56:18;;;;;;;0.80;0.60;;;22.40;62.10;;;;;;6265805;28;20111;-70
2023/07/15 07:59:18;;;;;;;0.45;0.45;;;22.40;62.00;;;;;;6245088;28;20021;-70
2023/07/15 08:02:19;;;;;;;1.33;0.60;;;22.40;62.00;;;;;;6267414;28;20522;-70
2023/07/15 08:05:19;;;;;;;0.82;0.60;;;22.40;62.00;;;;;;6267215;28;20023;-69
2023/07/15 08:08:20;;;;;;;0.60;0.50;;;22.40;62.10;;;;;;6267320;28;20021;-70
2023/07/15 08:11:21;;;;;;;1.20;0.60;;;22.40;62.00;;;;;;6272071;28;20487;-70
2023/07/15 08:14:21;;;;;;;0.50;0.50;;;22.40;62.00;;;;;;6271327;28;20052;-71
2023/07/15 08:17:22;;;;;;;0.70;0.60;;;22.40;62.00;;;;;;6272380;28;20071;-69
2023/07/15 08:20:23;;;;;;;0.40;0.40;;;22.40;62.00;;;;;;6272124;28;20585;-70
2023/07/15 08:23:23;;;;;;;0.73;0.60;;;22.40;62.00;;;;;;6272085;28;20021;-70
2023/07/15 08:26:24;;;;;;;1.48;0.95;;;22.40;62.00;;;;;;6271943;28;20033;-70
2023/07/15 08:29:25;;;;;;;0.70;0.60;;;22.50;62.10;;;;;;6272105;28;20017;-70
2023/07/15 08:32:26;;;;;;;0.57;0.50;;;22.40;62.00;;;;;;6271354;28;20521;-69
2023/07/15 08:35:26;;;;;;;0.70;0.70;;;22.40;62.00;;;;;;6271450;28;20043;-69
2023/07/15 08:38:27;;;;;;;1.20;0.65;;;22.40;62.00;;;;;;6272017;28;20028;-70
2023/07/15 08:41:27;;;;;;;0.98;0.70;;;22.40;62.00;;;;;;6271522;28;20017;-70
2023/07/15 08:44:28;;;;;;;0.98;0.80;;;22.40;62.00;;;;;;6271493;28;20064;-69
2023/07/15 08:47:29;;;;;;;0.73;0.70;;;22.40;62.00;;;;;;6271324;28;20029;-69
2023/07/15 08:50:33;;;;;;;1.02;0.60;;;22.40;62.00;;;;;;6253724;28;20024;-70
2023/07/15 08:53:36;;;;;;;1.30;0.80;;;22.40;62.00;;;;;;6270801;28;20040;-69
2023/07/15 08:56:38;;;;;;;0.85;0.60;;;22.40;62.00;;;;;;6266895;28;20030;-69
2023/07/15 08:59:38;;;;;;;0.60;0.55;;;22.50;62.10;;;;;;6246214;28;20021;-70
2023/07/15 09:02:39;;;;;;;0.70;0.60;;;22.40;62.80;;;;;;6267635;28;20032;-70
2023/07/15 09:05:39;;;;;;;1.05;0.75;;;22.50;62.70;;;;;;6270878;28;20631;-70
2023/07/15 09:08:49;;;;;;;1.60;0.70;;;22.40;62.40;;;;;;6270771;28;20025;-72
2023/07/15 09:11:50;;;;;;;0.88;0.70;;;22.40;62.30;;;;;;6270489;28;20068;-70
2023/07/15 09:14:51;;;;;;;0.73;0.70;;;22.50;62.30;;;;;;6269724;28;20021;-70
2023/07/15 09:17:57;;;;;;;0.80;0.70;;;22.50;62.30;;;;;;6270600;28;20032;-70
2023/07/15 09:21:12;;;;;;;6.45;0.60;;;22.50;62.30;;;;;;6269778;28;20202;-69
2023/07/15 09:24:13;;;;;;;;;;;22.50;63.30;;;;;;6267287;28;20024;-70
2023/07/15 09:27:13;;;;;;;1.85;0.80;;;22.50;62.90;;;;;;6270432;28;20379;-69
2023/07/15 09:30:15;;;;;;;0.93;0.70;;;22.50;62.50;;;;;;6270475;28;20057;-69
2023/07/15 09:33:39;;;;;;;1.48;0.80;;;22.50;62.40;;;;;;6269531;28;20526;-69
2023/07/15 09:36:40;;;;;;;1.23;0.80;;;22.50;62.40;;;;;;6270043;28;20024;-69
2023/07/15 09:39:40;;;;;;;1.20;0.75;;;22.50;62.30;;;;;;6270387;28;20021;-69
2023/07/15 09:42:54;;;;;;;1.05;0.70;;;22.50;62.30;;;;;;6269512;28;20108;-70
2023/07/15 09:45:54;;;;;;;0.70;0.70;;;22.50;62.40;;;;;;6247275;28;20091;-69
2023/07/15 09:48:59;;;;;;;2.17;0.75;;;22.50;62.30;;;;;;6265007;28;20032;-69
2023/07/15 09:52:03;;;;;;;0.68;0.50;;;22.50;62.30;;;;;;6270032;28;20104;-70
2023/07/15 09:55:04;;;;;;;0.55;0.50;;;22.50;62.30;;;;;;6244850;28;20052;-70
2023/07/15 09:58:24;;;;;;;1.70;0.80;;;22.40;62.20;;;;;;6260841;28;20112;-70
2023/07/15 10:01:38;;;;;;;0.82;0.68;;;22.50;62.30;;;;;;6269827;28;20031;-70
2023/07/15 10:04:44;;;;;;;1.65;0.60;;;22.50;62.30;;;;;;6269288;28;20021;-69
2023/07/15 10:07:45;;;;;;;1.98;0.82;;;22.40;62.20;;;;;;6266113;28;20023;-70
2023/07/15 10:10:47;;;;;;;0.95;0.50;;;22.40;62.20;;;;;;6269879;28;20670;-71
2023/07/15 10:13:48;;;;;;;0.90;0.70;;;22.50;62.30;;;;;;6268066;28;20041;-69
2023/07/15 10:17:11;;;;;;;1.60;0.75;;;22.50;62.30;;;;;;6261913;28;20503;-69
2023/07/15 10:20:12;;;;;;;1.10;0.73;;;22.40;62.20;;;;;;6241061;28;20090;-70
2023/07/15 10:23:16;;;;;;;1.67;0.70;;;22.50;62.30;;;;;;6243390;28;20033;-69
2023/07/15 10:26:21;;;;;;;0.63;0.52;;;22.50;62.30;;;;;;6268657;28;20021;-72
2023/07/15 10:29:25;;;;;;;0.55;0.50;;;22.40;62.20;;;;;;6269060;28;20036;-70
2023/07/15 10:32:25;;;;;;;0.70;0.50;;;22.50;62.30;;;;;;6268473;28;20055;-71
2023/07/15 10:35:27;;;;;;;0.88;0.60;;;22.40;62.20;;;;;;6269093;28;20025;-69
2023/07/15 10:38:31;;;;;;;0.73;0.68;;;22.50;62.30;;;;;;6268531;28;20047;-71
2023/07/15 10:41:40;;;;;;;0.98;0.70;;;22.50;62.30;;;;;;6269250;28;20078;-71
2023/07/15 10:44:41;;;;;;;1.10;0.50;;;22.50;62.30;;;;;;6267288;28;20025;-71
2023/07/15 10:47:45;;;;;;;0.93;0.70;;;22.50;62.30;;;;;;6268512;28;20100;-70
2023/07/15 10:50:57;;;;;;;0.90;0.70;;;22.50;62.30;;;;;;6258737;28;20112;-71
2023/07/15 10:54:00;;;;;;;1.13;0.80;;;22.50;62.30;;;;;;6267535;28;20059;-70
2023/07/15 10:57:11;;;;;;;0.98;0.70;;;22.40;62.20;;;;;;6261462;28;20057;-71
2023/07/15 11:00:12;;;;;;;1.02;0.75;;;22.50;62.30;;;;;;6266819;28;20471;-70
2023/07/15 11:03:13;;;;;;;1.45;0.80;;;22.50;62.30;;;;;;6257925;28;20028;-70
2023/07/15 11:06:14;;;;;;;2.15;1.00;;;22.50;62.30;;;;;;6267820;28;20031;-69
2023/07/15 11:09:17;;;;;;;1.35;1.02;;;22.50;62.30;;;;;;6256634;28;20052;-70
2023/07/15 11:12:18;;;;;;;2.25;1.20;;;22.50;62.30;;;;;;6267920;28;20451;-69
2023/07/15 11:15:19;;;;;;;2.35;1.00;;;22.50;62.50;;;;;;6266857;28;20028;-69
2023/07/15 11:18:22;;;;;;;1.75;0.90;;;22.60;63.00;;;;;;6267929;28;20102;-69
2023/07/15 11:21:23;;;;;;;1.35;0.70;;;22.60;63.10;;;;;;6268190;28;20025;-70
2023/07/15 11:24:25;;;;;;;4.53;1.10;;;22.60;63.20;;;;;;6267147;28;20021;-69
2023/07/15 11:27:26;;;;;;;1.55;1.08;;;22.60;63.10;;;;;;6267666;28;20029;-70
2023/07/15 11:30:37;;;;;;;1.67;1.20;;;22.70;62.70;;;;;;6233457;28;20736;-69
2023/07/15 11:33:39;;;;;;;1.10;1.00;;;22.70;62.30;;;;;;6266817;28;20395;-70
2023/07/15 11:36:39;;;;;;;2.22;1.00;;;22.60;62.70;;;;;;6267566;28;20104;-70
2023/07/15 11:39:41;;;;;;;1.17;0.95;;;22.60;62.60;;;;;;6266987;28;20423;-70
2023/07/15 11:42:41;;;;;;;2.30;0.90;;;22.60;62.70;;;;;;6267897;28;20029;-70
2023/07/15 11:45:42;;;;;;;1.90;0.82;;;22.60;62.70;;;;;;6266374;28;20087;-69
2023/07/15 11:48:43;;;;;;;1.65;1.10;;;22.60;62.70;;;;;;6267249;28;20029;-70
2023/07/15 11:51:44;;;;;;;0.80;0.80;;;22.60;62.70;;;;;;6259422;28;20083;-70
2023/07/15 11:54:47;;;;;;;1.45;0.90;;;22.50;62.60;;;;;;6266595;28;20147;-70
2023/07/15 11:57:48;;;;;;;1.77;0.90;;;22.60;62.70;;;;;;6267374;28;20375;-69
2023/07/15 12:00:50;;;;;;;2.83;1.23;;;22.60;62.60;;;;;;6260154;28;20049;-69
2023/07/15 12:03:52;;;;;;;1.30;0.88;;;22.60;62.50;;;;;;6254025;28;20025;-69
2023/07/15 12:06:53;;;;;;;2.15;1.20;;;22.60;62.50;;;;;;6266477;28;20013;-70
2023/07/15 12:10:07;;;;;;;3.47;1.13;;;22.50;62.30;;;;;;6266856;28;20100;-70
2023/07/15 12:13:07;;;;;;;1.92;0.90;;;22.60;62.50;;;;;;6266882;28;20107;-70
2023/07/15 12:16:08;;;;;;;6.57;1.30;;;22.60;62.50;;;;;;6266605;28;20031;-70
2023/07/15 12:19:12;;;;;;;2.25;1.38;;;22.50;62.50;;;;;;6266422;28;20047;-70
2023/07/15 12:22:12;;;;;;;1.20;0.90;;;22.60;62.50;;;;;;6267120;28;20029;-70
2023/07/15 12:25:13;;;;;;;1.38;0.82;;;22.50;62.40;;;;;;6266397;28;20104;-70
2023/07/15 12:28:13;;;;;;;1.42;1.00;;;22.50;62.40;;;;;;6262402;28;20021;-70
2023/07/15 12:31:15;;;;;;;1.80;1.02;;;22.50;62.50;;;;;;6266400;28;20057;-70
2023/07/15 12:34:16;;;;;;;2.58;1.00;;;22.50;62.40;;;;;;6266718;28;20041;-70
2023/07/15 12:37:18;;;;;;;1.50;0.90;;;22.50;62.40;;;;;;6267135;28;20025;-70
2023/07/15 12:40:18;;;;;;;3.28;1.00;;;22.50;62.50;;;;;;6266270;28;20025;-71
2023/07/15 12:43:20;;;;;;;1.92;1.20;;;22.50;62.40;;;;;;6267064;28;20036;-70
2023/07/15 12:46:20;;;;;;;2.25;1.30;;;22.50;62.40;;;;;;6250054;28;20025;-70
2023/07/15 12:49:21;;;;;;;1.63;1.02;;;22.50;62.40;;;;;;6267269;28;20033;-70
2023/07/15 12:52:22;;;;;;;1.20;0.85;;;22.50;62.40;;;;;;6264895;28;20033;-70
2023/07/15 12:55:22;;;;;;;2.22;1.10;;;22.50;62.40;;;;;;6266096;28;20024;-70
2023/07/15 12:58:23;;;;;;;1.58;1.00;;;22.50;62.40;;;;;;6271001;28;20029;-69
2023/07/15 13:01:24;;;;;;;1.55;0.95;;;22.50;62.30;;;;;;6270952;28;20384;-69
2023/07/15 13:04:24;;;;;;;1.80;0.95;;;22.50;62.30;;;;;;6250159;28;20029;-70
2023/07/15 13:07:25;;;;;;;1.42;1.00;;;22.50;62.30;;;;;;6264603;28;20025;-70
2023/07/15 13:10:26;;;;;;;1.70;1.00;;;22.50;62.30;;;;;;6270399;28;20024;-70
2023/07/15 13:13:26;;;;;;;1.67;0.90;;;22.50;62.40;;;;;;6256102;28;20119;-70
2023/07/15 13:16:27;;;;;;;1.27;1.00;;;22.50;62.30;;;;;;6270415;28;20071;-70
2023/07/15 13:19:27;;;;;;;1.55;1.00;;;22.50;62.30;;;;;;6270947;28;20029;-70
2023/07/15 13:22:28;;;;;;;1.13;0.77;;;22.50;63.30;;;;;;6270451;28;20053;-70
2023/07/15 13:25:28;;;;;;;2.17;1.10;;;22.50;62.30;;;;;;6270123;28;20029;-70
2023/07/15 13:28:29;;;;;;;1.50;1.00;;;22.50;62.30;;;;;;6270547;28;20029;-70
2023/07/15 13:31:30;;;;;;;2.88;1.23;;;22.50;62.30;;;;;;6270209;28;20049;-71
2023/07/15 13:34:30;;;;;;;0.90;0.82;;;22.50;62.40;;;;;;6266710;28;20033;-69
2023/07/15 13:37:31;;;;;;;1.83;1.00;;;22.50;62.30;;;;;;6270091;28;20033;-70
2023/07/15 13:40:32;;;;;;;1.42;0.88;;;22.50;62.30;;;;;;6269647;28;20029;-70
2023/07/15 13:43:32;;;;;;;1.50;0.88;;;22.50;62.30;;;;;;6270150;28;20028;-70
2023/07/15 13:46:33;;;;;;;0.80;0.77;;;22.50;62.30;;;;;;6270038;28;20017;-70
2023/07/15 13:49:34;;;;;;;1.20;0.88;;;22.50;62.30;;;;;;6270515;28;20691;-70
2023/07/15 13:52:34;;;;;;;2.40;0.93;;;22.50;62.30;;;;;;6269647;28;20461;-70
2023/07/15 13:55:35;;;;;;;1.38;0.75;;;22.50;62.40;;;;;;6269734;28;20104;-73
2023/07/15 13:58:35;;;;;;;1.95;1.00;;;22.50;62.30;;;;;;6269690;28;20108;-70
2023/07/15 14:01:36;;;;;;;1.13;0.80;;;22.50;62.30;;;;;;6269611;28;20028;-70
2023/07/15 14:04:37;;;;;;;1.10;0.82;;;22.50;62.30;;;;;;6269210;28;20071;-70
2023/07/15 14:07:37;;;;;;;1.35;0.80;;;22.50;62.30;;;;;;6268743;28;20021;-70
2023/07/15 14:10:38;;;;;;;0.93;0.77;;;22.50;62.30;;;;;;6269717;28;20490;-70
2023/07/15 14:13:38;;;;;;;1.95;0.85;;;22.50;62.30;;;;;;6268822;28;20087;-70
2023/07/15 14:16:39;;;;;;;0.90;0.63;;;22.50;62.30;;;;;;6268697;28;20021;-69
2023/07/15 14:19:40;;;;;;;3.28;0.80;;;22.50;62.30;;;;;;6269317;28;20061;-70
2023/07/15 14:22:40;;;;;;;1.40;0.93;;;22.50;62.30;;;;;;6268477;28;20024;-69
2023/07/15 14:25:41;;;;;;;1.40;0.95;;;22.50;62.30;;;;;;6268671;28;20048;-70
2023/07/15 14:28:42;;;;;;;0.80;0.70;;;22.50;63.20;;;;;;6268901;28;20028;-70
2023/07/15 14:31:43;;;;;;;1.40;0.82;;;22.50;62.30;;;;;;6268756;28;20045;-71
2023/07/15 14:34:43;;;;;;;1.02;0.70;;;22.50;62.30;;;;;;6268444;28;20491;-70
2023/07/15 14:37:44;;;;;;;1.85;0.70;;;22.50;63.20;;;;;;6268782;28;20047;-70
2023/07/15 14:40:45;;;;;;;1.25;0.77;;;22.50;62.30;;;;;;6265644;28;20082;-70
2023/07/15 14:43:45;;;;;;;1.83;1.00;;;22.50;62.30;;;;;;6268312;28;20619;-70
2023/07/15 14:46:46;;;;;;;1.67;0.98;;;22.50;62.40;;;;;;6267913;28;20040;-69
2023/07/15 14:49:46;;;;;;;0.98;0.88;;;22.50;62.30;;;;;;6268960;28;20028;-69
2023/07/15 14:52:47;;;;;;;1.38;0.82;;;22.50;62.30;;;;;;6268187;28;20072;-70
2023/07/15 14:55:48;;;;;;;1.08;0.80;;;22.50;62.30;;;;;;6268313;28;20029;-69
2023/07/15 14:58:48;;;;;;;1.10;0.77;;;22.50;62.30;;;;;;6267897;28;20040;-70
2023/07/15 15:01:49;;;;;;;0.77;0.77;;;22.50;62.30;;;;;;6267820;28;20020;-70
2023/07/15 15:04:50;;;;;;;2.85;0.80;;;22.50;62.30;;;;;;6248427;28;20064;-70
2023/07/15 15:07:50;;;;;;;1.95;0.85;;;22.50;62.30;;;;;;6266601;28;20036;-70
2023/07/15 15:10:54;;;;;;;1.73;1.00;;;22.50;62.40;;;;;;6260751;28;20693;-70
2023/07/15 15:13:54;;;;;;;1.10;0.70;;;22.50;62.30;;;;;;6259136;28;20120;-70
2023/07/15 15:16:55;;;;;;;1.55;0.80;;;22.50;62.30;;;;;;6267824;28;20494;-70
2023/07/15 15:19:57;;;;;;;1.35;0.90;;;22.50;62.30;;;;;;6267232;28;20029;-70
2023/07/15 15:22:57;;;;;;;2.85;0.90;;;22.50;62.30;;;;;;6267223;28;20021;-71
2023/07/15 15:25:58;;;;;;;1.48;0.80;;;22.50;62.30;;;;;;6235229;28;20041;-70
2023/07/15 15:28:59;;;;;;;1.13;0.70;;;22.50;62.30;;;;;;6257635;28;20025;-70
2023/07/15 15:32:00;;;;;;;0.93;0.65;;;22.50;62.30;;;;;;6267899;28;20044;-71
2023/07/15 15:35:00;;;;;;;1.65;0.80;;;22.50;62.30;;;;;;6267438;28;20112;-70
2023/07/15 15:38:02;;;;;;;1.52;0.70;;;22.50;62.30;;;;;;6267521;28;20140;-69
2023/07/15 15:41:03;;;;;;;0.80;0.70;;;22.50;62.30;;;;;;6267978;28;20048;-70
2023/07/15 15:44:04;;;;;;;1.23;0.90;;;22.50;62.30;;;;;;6262386;28;20659;-70
2023/07/15 15:47:05;;;;;;;1.30;0.88;;;22.50;63.20;;;;;;6267372;28;20063;-70